sensor_id;sensor_type;location;lat;lon;timestamp;temperature;humidity
25024;DHT22;13033;50.936;5.334;2023-10-31T00:01:49;11.80;99.90
25024;DHT22;13033;50.936;5.334;2023-10-31T00:04:15;11.80;99.90
25024;DHT22;13033;50.936;5.334;2023-10-31T00:06:40;11.70;99.90
25024;DHT22;13033;50.936;5.334;2023-10-31T00:09:06;11.60;99.90
25024;DHT22;13033;50.936;5.334;2023-10-31T00:11:32;11.60;99.90
25024;DHT22;13033;50.936;5.334;2023-10-31T00:13:58;11.60;99.90
25024;DHT22;13033;50.936;5.334;2023-10-31T00:16:23;11.70;99.90
25024;DHT22;13033;50.936;5.334;2023-10-31T00:18:49;11.70;99.90
25024;DHT22;13033;50.936;5.334;2023-10-31T00:21:15;11.60;99.90
25024;DHT22;13033;50.936;5.334;2023-10-31T00:23:44;11.40;99.90
25024;DHT22;13033;50.936;5.334;2023-10-31T00:26:10;11.40;99.90
25024;DHT22;13033;50.936;5.334;2023-10-31T00:28:36;11.30;99.90
25024;DHT22;13033;50.936;5.334;2023-10-31T00:31:02;11.40;99.90
25024;DHT22;13033;50.936;5.334;2023-10-31T00:33:29;11.50;99.90
25024;DHT22;13033;50.936;5.334;2023-10-31T00:35:55;11.60;99.90
25024;DHT22;13033;50.936;5.334;2023-10-31T00:38:21;11.60;99.90
25024;DHT22;13033;50.936;5.334;2023-10-31T00:40:47;11.30;99.90
25024;DHT22;13033;50.936;5.334;2023-10-31T00:43:12;11.30;99.90
25024;DHT22;13033;50.936;5.334;2023-10-31T00:45:38;11.30;99.90
25024;DHT22;13033;50.936;5.334;2023-10-31T00:48:04;11.30;99.90
25024;DHT22;13033;50.936;5.334;2023-10-31T00:50:30;11.40;99.90
25024;DHT22;13033;50.936;5.334;2023-10-31T00:52:55;11.40;99.90
25024;DHT22;13033;50.936;5.334;2023-10-31T00:55:21;11.40;99.90
25024;DHT22;13033;50.936;5.334;2023-10-31T00:57:47;11.50;99.90
25024;DHT22;13033;50.936;5.334;2023-10-31T01:00:16;11.60;99.90
25024;DHT22;13033;50.936;5.334;2023-10-31T01:02:42;11.60;99.90
25024;DHT22;13033;50.936;5.334;2023-10-31T01:05:08;11.60;99.90
25024;DHT22;13033;50.936;5.334;2023-10-31T01:07:34;11.60;99.90
25024;DHT22;13033;50.936;5.334;2023-10-31T01:10:00;11.60;99.90
25024;DHT22;13033;50.936;5.334;2023-10-31T01:12:25;11.60;99.90
25024;DHT22;13033;50.936;5.334;2023-10-31T01:14:54;11.60;99.90
25024;DHT22;13033;50.936;5.334;2023-10-31T01:17:20;11.60;99.90
25024;DHT22;13033;50.936;5.334;2023-10-31T01:19:46;11.70;99.90
25024;DHT22;13033;50.936;5.334;2023-10-31T01:22:12;11.50;99.90
25024;DHT22;13033;50.936;5.334;2023-10-31T01:24:37;11.50;99.90
25024;DHT22;13033;50.936;5.334;2023-10-31T01:27:03;11.50;99.90
25024;DHT22;13033;50.936;5.334;2023-10-31T01:29:29;11.40;99.90
25024;DHT22;13033;50.936;5.334;2023-10-31T01:31:55;11.40;99.90
25024;DHT22;13033;50.936;5.334;2023-10-31T01:34:21;11.50;99.90
25024;DHT22;13033;50.936;5.334;2023-10-31T01:36:47;11.60;99.90
25024;DHT22;13033;50.936;5.334;2023-10-31T01:39:12;11.60;99.90
25024;DHT22;13033;50.936;5.334;2023-10-31T01:41:41;11.60;99.90
25024;DHT22;13033;50.936;5.334;2023-10-31T01:44:08;11.70;99.90
25024;DHT22;13033;50.936;5.334;2023-10-31T01:46:34;11.80;99.90
25024;DHT22;13033;50.936;5.334;2023-10-31T01:48:59;11.80;99.90
25024;DHT22;13033;50.936;5.334;2023-10-31T01:51:28;11.80;99.90
25024;DHT22;13033;50.936;5.334;2023-10-31T01:53:55;11.70;99.90
25024;DHT22;13033;50.936;5.334;2023-10-31T01:56:22;11.80;99.90
25024;DHT22;13033;50.936;5.334;2023-10-31T01:58:49;11.80;99.90
25024;DHT22;13033;50.936;5.334;2023-10-31T02:01:15;11.80;99.90
25024;DHT22;13033;50.936;5.334;2023-10-31T02:03:41;11.80;99.90
25024;DHT22;13033;50.936;5.334;2023-10-31T02:06:07;11.80;99.90
25024;DHT22;13033;50.936;5.334;2023-10-31T02:08:33;11.90;99.90
25024;DHT22;13033;50.936;5.334;2023-10-31T02:10:59;11.90;99.90
25024;DHT22;13033;50.936;5.334;2023-10-31T02:13:25;11.80;99.90
25024;DHT22;13033;50.936;5.334;2023-10-31T02:15:51;11.90;99.90
25024;DHT22;13033;50.936;5.334;2023-10-31T02:18:17;11.90;99.90
25024;DHT22;13033;50.936;5.334;2023-10-31T02:20:43;11.90;99.90
25024;DHT22;13033;50.936;5.334;2023-10-31T02:23:09;11.90;99.90
25024;DHT22;13033;50.936;5.334;2023-10-31T02:25:34;11.80;99.90
25024;DHT22;13033;50.936;5.334;2023-10-31T02:28:00;11.80;99.90
25024;DHT22;13033;50.936;5.334;2023-10-31T02:30:27;11.80;99.90
25024;DHT22;13033;50.936;5.334;2023-10-31T02:32:53;11.80;99.90
25024;DHT22;13033;50.936;5.334;2023-10-31T02:35:19;11.80;99.90
25024;DHT22;13033;50.936;5.334;2023-10-31T02:37:45;11.80;99.90
25024;DHT22;13033;50.936;5.334;2023-10-31T02:40:11;11.80;99.90
25024;DHT22;13033;50.936;5.334;2023-10-31T02:42:37;11.80;99.90
25024;DHT22;13033;50.936;5.334;2023-10-31T02:45:03;11.80;99.90
25024;DHT22;13033;50.936;5.334;2023-10-31T02:47:30;11.80;99.90
25024;DHT22;13033;50.936;5.334;2023-10-31T02:49:55;11.80;99.90
25024;DHT22;13033;50.936;5.334;2023-10-31T02:52:21;11.90;99.90
25024;DHT22;13033;50.936;5.334;2023-10-31T02:54:47;11.90;99.90
25024;DHT22;13033;50.936;5.334;2023-10-31T02:57:13;12.00;99.90
25024;DHT22;13033;50.936;5.334;2023-10-31T02:59:38;11.90;99.90
25024;DHT22;13033;50.936;5.334;2023-10-31T03:02:04;11.90;99.90
25024;DHT22;13033;50.936;5.334;2023-10-31T03:04:30;11.90;99.90
25024;DHT22;13033;50.936;5.334;2023-10-31T03:06:55;11.90;99.90
25024;DHT22;13033;50.936;5.334;2023-10-31T03:09:21;11.90;99.90
25024;DHT22;13033;50.936;5.334;2023-10-31T03:11:47;11.80;99.90
25024;DHT22;13033;50.936;5.334;2023-10-31T03:14:12;11.80;99.90
25024;DHT22;13033;50.936;5.334;2023-10-31T03:16:38;11.90;99.90
25024;DHT22;13033;50.936;5.334;2023-10-31T03:19:05;11.80;99.90
25024;DHT22;13033;50.936;5.334;2023-10-31T03:21:30;11.80;99.90
25024;DHT22;13033;50.936;5.334;2023-10-31T03:23:56;11.90;99.90
25024;DHT22;13033;50.936;5.334;2023-10-31T03:26:22;12.00;99.90
25024;DHT22;13033;50.936;5.334;2023-10-31T03:28:48;12.00;99.90
25024;DHT22;13033;50.936;5.334;2023-10-31T03:31:14;12.00;99.90
25024;DHT22;13033;50.936;5.334;2023-10-31T03:33:41;12.00;99.90
25024;DHT22;13033;50.936;5.334;2023-10-31T03:36:08;12.10;99.90
25024;DHT22;13033;50.936;5.334;2023-10-31T03:38:34;12.10;99.90
25024;DHT22;13033;50.936;5.334;2023-10-31T03:41:00;12.00;99.90
25024;DHT22;13033;50.936;5.334;2023-10-31T03:43:26;12.00;99.90
25024;DHT22;13033;50.936;5.334;2023-10-31T03:45:52;11.90;99.90
25024;DHT22;13033;50.936;5.334;2023-10-31T03:48:18;12.00;99.90
25024;DHT22;13033;50.936;5.334;2023-10-31T03:50:44;12.00;99.90
25024;DHT22;13033;50.936;5.334;2023-10-31T03:53:10;12.10;99.90
25024;DHT22;13033;50.936;5.334;2023-10-31T03:55:36;12.10;99.90
25024;DHT22;13033;50.936;5.334;2023-10-31T03:58:02;12.00;99.90
25024;DHT22;13033;50.936;5.334;2023-10-31T04:00:27;12.00;99.90
25024;DHT22;13033;50.936;5.334;2023-10-31T04:02:53;11.90;99.90
25024;DHT22;13033;50.936;5.334;2023-10-31T04:05:19;11.80;99.90
25024;DHT22;13033;50.936;5.334;2023-10-31T04:07:48;11.80;99.90
25024;DHT22;13033;50.936;5.334;2023-10-31T04:10:14;11.70;99.90
25024;DHT22;13033;50.936;5.334;2023-10-31T04:12:40;11.70;99.90
25024;DHT22;13033;50.936;5.334;2023-10-31T04:15:07;11.60;99.90
25024;DHT22;13033;50.936;5.334;2023-10-31T04:17:32;11.50;99.90
25024;DHT22;13033;50.936;5.334;2023-10-31T04:19:58;11.50;99.90
25024;DHT22;13033;50.936;5.334;2023-10-31T04:22:24;11.60;99.90
25024;DHT22;13033;50.936;5.334;2023-10-31T04:24:50;11.60;99.90
25024;DHT22;13033;50.936;5.334;2023-10-31T04:27:15;11.60;99.90
25024;DHT22;13033;50.936;5.334;2023-10-31T04:29:41;11.40;99.90
25024;DHT22;13033;50.936;5.334;2023-10-31T04:32:06;11.30;99.90
25024;DHT22;13033;50.936;5.334;2023-10-31T04:34:33;11.30;99.90
25024;DHT22;13033;50.936;5.334;2023-10-31T04:36:58;11.30;99.90
25024;DHT22;13033;50.936;5.334;2023-10-31T04:39:24;11.30;99.90
25024;DHT22;13033;50.936;5.334;2023-10-31T04:41:50;11.20;99.90
25024;DHT22;13033;50.936;5.334;2023-10-31T04:44:15;11.20;99.90
25024;DHT22;13033;50.936;5.334;2023-10-31T04:46:42;11.20;99.90
25024;DHT22;13033;50.936;5.334;2023-10-31T04:49:08;11.20;99.90
25024;DHT22;13033;50.936;5.334;2023-10-31T04:51:37;11.30;99.90
25024;DHT22;13033;50.936;5.334;2023-10-31T04:54:04;11.40;99.90
25024;DHT22;13033;50.936;5.334;2023-10-31T04:56:29;11.40;99.90
25024;DHT22;13033;50.936;5.334;2023-10-31T04:58:55;11.40;99.90
25024;DHT22;13033;50.936;5.334;2023-10-31T05:01:21;11.30;99.90
25024;DHT22;13033;50.936;5.334;2023-10-31T05:03:47;11.20;99.90
25024;DHT22;13033;50.936;5.334;2023-10-31T05:06:12;11.20;99.90
25024;DHT22;13033;50.936;5.334;2023-10-31T05:08:38;11.00;99.90
25024;DHT22;13033;50.936;5.334;2023-10-31T05:11:04;11.00;99.90
25024;DHT22;13033;50.936;5.334;2023-10-31T05:13:29;10.90;99.90
25024;DHT22;13033;50.936;5.334;2023-10-31T05:15:55;10.90;99.90
25024;DHT22;13033;50.936;5.334;2023-10-31T05:18:21;10.90;99.90
25024;DHT22;13033;50.936;5.334;2023-10-31T05:20:47;10.90;99.90
25024;DHT22;13033;50.936;5.334;2023-10-31T05:23:13;11.00;99.90
25024;DHT22;13033;50.936;5.334;2023-10-31T05:25:39;10.90;99.90
25024;DHT22;13033;50.936;5.334;2023-10-31T05:28:04;10.80;99.90
25024;DHT22;13033;50.936;5.334;2023-10-31T05:30:30;10.60;99.90
25024;DHT22;13033;50.936;5.334;2023-10-31T05:32:56;10.60;99.90
25024;DHT22;13033;50.936;5.334;2023-10-31T05:35:22;10.60;99.90
25024;DHT22;13033;50.936;5.334;2023-10-31T05:37:48;10.50;99.90
25024;DHT22;13033;50.936;5.334;2023-10-31T05:40:15;10.50;99.90
25024;DHT22;13033;50.936;5.334;2023-10-31T05:42:41;10.50;99.90
25024;DHT22;13033;50.936;5.334;2023-10-31T05:45:08;10.40;99.90
25024;DHT22;13033;50.936;5.334;2023-10-31T05:47:34;10.50;99.90
25024;DHT22;13033;50.936;5.334;2023-10-31T05:50:00;10.60;99.90
25024;DHT22;13033;50.936;5.334;2023-10-31T05:52:29;10.60;99.90
25024;DHT22;13033;50.936;5.334;2023-10-31T05:54:58;10.50;99.90
25024;DHT22;13033;50.936;5.334;2023-10-31T05:57:24;10.70;99.90
25024;DHT22;13033;50.936;5.334;2023-10-31T05:59:50;10.70;99.90
25024;DHT22;13033;50.936;5.334;2023-10-31T06:02:15;10.70;99.90
25024;DHT22;13033;50.936;5.334;2023-10-31T06:04:41;10.70;99.90
25024;DHT22;13033;50.936;5.334;2023-10-31T06:07:07;10.90;99.90
25024;DHT22;13033;50.936;5.334;2023-10-31T06:09:33;11.00;99.90
25024;DHT22;13033;50.936;5.334;2023-10-31T06:12:00;10.90;99.90
25024;DHT22;13033;50.936;5.334;2023-10-31T06:14:25;10.80;99.90
25024;DHT22;13033;50.936;5.334;2023-10-31T06:16:51;10.80;99.90
25024;DHT22;13033;50.936;5.334;2023-10-31T06:19:17;10.80;99.90
25024;DHT22;13033;50.936;5.334;2023-10-31T06:21:43;10.70;99.90
25024;DHT22;13033;50.936;5.334;2023-10-31T06:24:09;10.70;99.90
25024;DHT22;13033;50.936;5.334;2023-10-31T06:26:35;10.60;99.90
25024;DHT22;13033;50.936;5.334;2023-10-31T06:29:01;10.60;99.90
25024;DHT22;13033;50.936;5.334;2023-10-31T06:31:26;10.60;99.90
25024;DHT22;13033;50.936;5.334;2023-10-31T06:33:52;10.60;99.90
25024;DHT22;13033;50.936;5.334;2023-10-31T06:36:18;10.50;99.90
25024;DHT22;13033;50.936;5.334;2023-10-31T06:38:43;10.60;99.90
25024;DHT22;13033;50.936;5.334;2023-10-31T06:41:09;10.60;99.90
25024;DHT22;13033;50.936;5.334;2023-10-31T06:43:35;10.60;99.90
25024;DHT22;13033;50.936;5.334;2023-10-31T06:46:01;10.60;99.90
25024;DHT22;13033;50.936;5.334;2023-10-31T06:48:28;10.60;99.90
25024;DHT22;13033;50.936;5.334;2023-10-31T06:50:54;10.70;99.90
25024;DHT22;13033;50.936;5.334;2023-10-31T06:53:19;10.70;99.90
25024;DHT22;13033;50.936;5.334;2023-10-31T06:55:45;10.80;99.90
25024;DHT22;13033;50.936;5.334;2023-10-31T06:58:11;10.90;99.90
25024;DHT22;13033;50.936;5.334;2023-10-31T07:00:37;11.00;99.90
25024;DHT22;13033;50.936;5.334;2023-10-31T07:03:05;11.00;99.90
25024;DHT22;13033;50.936;5.334;2023-10-31T07:05:35;10.90;99.90
25024;DHT22;13033;50.936;5.334;2023-10-31T07:08:01;10.90;99.90
25024;DHT22;13033;50.936;5.334;2023-10-31T07:10:28;10.90;99.90
25024;DHT22;13033;50.936;5.334;2023-10-31T07:12:54;10.90;99.90
25024;DHT22;13033;50.936;5.334;2023-10-31T07:15:20;10.80;99.90
25024;DHT22;13033;50.936;5.334;2023-10-31T07:17:46;10.90;99.90
25024;DHT22;13033;50.936;5.334;2023-10-31T07:20:12;10.90;99.90
25024;DHT22;13033;50.936;5.334;2023-10-31T07:22:38;11.00;99.90
25024;DHT22;13033;50.936;5.334;2023-10-31T07:25:06;11.00;99.90
25024;DHT22;13033;50.936;5.334;2023-10-31T07:27:31;10.90;99.90
25024;DHT22;13033;50.936;5.334;2023-10-31T07:29:57;10.90;99.90
25024;DHT22;13033;50.936;5.334;2023-10-31T07:32:23;11.00;99.90
25024;DHT22;13033;50.936;5.334;2023-10-31T07:34:49;11.00;99.90
25024;DHT22;13033;50.936;5.334;2023-10-31T07:37:15;11.20;99.90
25024;DHT22;13033;50.936;5.334;2023-10-31T07:39:40;11.20;99.90
25024;DHT22;13033;50.936;5.334;2023-10-31T07:42:07;11.20;99.90
25024;DHT22;13033;50.936;5.334;2023-10-31T07:44:33;11.30;99.90
25024;DHT22;13033;50.936;5.334;2023-10-31T07:46:59;11.20;99.90
25024;DHT22;13033;50.936;5.334;2023-10-31T07:49:25;11.30;99.90
25024;DHT22;13033;50.936;5.334;2023-10-31T07:51:50;11.40;99.90
25024;DHT22;13033;50.936;5.334;2023-10-31T07:54:16;11.40;99.90
25024;DHT22;13033;50.936;5.334;2023-10-31T07:56:42;11.40;99.90
25024;DHT22;13033;50.936;5.334;2023-10-31T07:59:14;11.50;99.90
25024;DHT22;13033;50.936;5.334;2023-10-31T08:01:39;11.60;99.90
25024;DHT22;13033;50.936;5.334;2023-10-31T08:04:05;11.50;99.90
25024;DHT22;13033;50.936;5.334;2023-10-31T08:06:31;11.40;99.90
25024;DHT22;13033;50.936;5.334;2023-10-31T08:08:57;11.40;99.90
25024;DHT22;13033;50.936;5.334;2023-10-31T08:11:22;11.30;99.90
25024;DHT22;13033;50.936;5.334;2023-10-31T08:13:49;11.40;99.90
25024;DHT22;13033;50.936;5.334;2023-10-31T08:16:19;11.50;99.90
25024;DHT22;13033;50.936;5.334;2023-10-31T08:18:48;11.60;99.90
25024;DHT22;13033;50.936;5.334;2023-10-31T08:21:14;11.80;99.90
25024;DHT22;13033;50.936;5.334;2023-10-31T08:23:40;12.10;99.90
25024;DHT22;13033;50.936;5.334;2023-10-31T08:26:06;12.20;99.90
25024;DHT22;13033;50.936;5.334;2023-10-31T08:28:31;12.40;99.90
25024;DHT22;13033;50.936;5.334;2023-10-31T08:30:57;12.30;99.90
25024;DHT22;13033;50.936;5.334;2023-10-31T08:33:23;12.30;99.90
25024;DHT22;13033;50.936;5.334;2023-10-31T08:35:49;12.40;99.90
25024;DHT22;13033;50.936;5.334;2023-10-31T08:38:16;12.70;99.90
25024;DHT22;13033;50.936;5.334;2023-10-31T08:40:42;12.70;99.90
25024;DHT22;13033;50.936;5.334;2023-10-31T08:43:08;12.70;99.90
25024;DHT22;13033;50.936;5.334;2023-10-31T08:45:34;12.70;99.90
25024;DHT22;13033;50.936;5.334;2023-10-31T08:48:00;12.70;99.90
25024;DHT22;13033;50.936;5.334;2023-10-31T08:50:26;12.80;99.90
25024;DHT22;13033;50.936;5.334;2023-10-31T08:52:52;12.70;99.90
25024;DHT22;13033;50.936;5.334;2023-10-31T08:55:18;12.90;99.90
25024;DHT22;13033;50.936;5.334;2023-10-31T08:57:44;13.00;99.90
25024;DHT22;13033;50.936;5.334;2023-10-31T09:00:10;13.10;99.90
25024;DHT22;13033;50.936;5.334;2023-10-31T09:02:36;12.80;99.90
25024;DHT22;13033;50.936;5.334;2023-10-31T09:05:02;12.70;99.90
25024;DHT22;13033;50.936;5.334;2023-10-31T09:07:27;12.70;99.90
25024;DHT22;13033;50.936;5.334;2023-10-31T09:09:53;12.70;99.90
25024;DHT22;13033;50.936;5.334;2023-10-31T09:12:19;12.70;99.90
25024;DHT22;13033;50.936;5.334;2023-10-31T09:14:45;12.60;99.90
25024;DHT22;13033;50.936;5.334;2023-10-31T09:17:11;12.70;99.90
25024;DHT22;13033;50.936;5.334;2023-10-31T09:19:36;13.10;99.90
25024;DHT22;13033;50.936;5.334;2023-10-31T09:22:02;13.30;99.90
25024;DHT22;13033;50.936;5.334;2023-10-31T09:24:28;13.30;99.90
25024;DHT22;13033;50.936;5.334;2023-10-31T09:26:53;13.00;99.90
25024;DHT22;13033;50.936;5.334;2023-10-31T09:29:19;12.90;99.90
25024;DHT22;13033;50.936;5.334;2023-10-31T09:31:45;13.00;99.90
25024;DHT22;13033;50.936;5.334;2023-10-31T09:34:11;12.90;99.90
25024;DHT22;13033;50.936;5.334;2023-10-31T09:36:39;12.90;99.90
25024;DHT22;13033;50.936;5.334;2023-10-31T09:39:04;12.90;99.90
25024;DHT22;13033;50.936;5.334;2023-10-31T09:41:30;12.90;99.90
25024;DHT22;13033;50.936;5.334;2023-10-31T09:43:57;12.80;99.90
25024;DHT22;13033;50.936;5.334;2023-10-31T09:46:23;12.70;99.90
25024;DHT22;13033;50.936;5.334;2023-10-31T09:48:50;12.90;99.90
25024;DHT22;13033;50.936;5.334;2023-10-31T09:51:17;13.10;99.90
25024;DHT22;13033;50.936;5.334;2023-10-31T09:53:45;13.30;99.90
25024;DHT22;13033;50.936;5.334;2023-10-31T09:56:11;13.40;99.90
25024;DHT22;13033;50.936;5.334;2023-10-31T09:58:37;13.60;99.90
25024;DHT22;13033;50.936;5.334;2023-10-31T10:01:05;13.50;99.90
25024;DHT22;13033;50.936;5.334;2023-10-31T10:03:30;13.50;99.90
25024;DHT22;13033;50.936;5.334;2023-10-31T10:05:57;13.50;99.90
25024;DHT22;13033;50.936;5.334;2023-10-31T10:08:23;13.60;99.90
25024;DHT22;13033;50.936;5.334;2023-10-31T10:10:50;13.70;99.90
25024;DHT22;13033;50.936;5.334;2023-10-31T10:13:22;13.80;99.90
25024;DHT22;13033;50.936;5.334;2023-10-31T10:15:50;13.70;99.90
25024;DHT22;13033;50.936;5.334;2023-10-31T10:18:34;13.70;99.90
25024;DHT22;13033;50.936;5.334;2023-10-31T10:21:06;13.70;99.90
25024;DHT22;13033;50.936;5.334;2023-10-31T10:23:32;13.50;99.90
25024;DHT22;13033;50.936;5.334;2023-10-31T10:26:01;13.50;99.90
25024;DHT22;13033;50.936;5.334;2023-10-31T10:28:27;13.50;99.90
25024;DHT22;13033;50.936;5.334;2023-10-31T10:30:55;13.40;99.90
25024;DHT22;13033;50.936;5.334;2023-10-31T10:33:21;13.40;99.90
25024;DHT22;13033;50.936;5.334;2023-10-31T10:35:48;13.40;99.90
25024;DHT22;13033;50.936;5.334;2023-10-31T10:38:16;13.30;99.90
25024;DHT22;13033;50.936;5.334;2023-10-31T10:40:48;13.40;99.90
25024;DHT22;13033;50.936;5.334;2023-10-31T10:43:22;13.40;99.90
25024;DHT22;13033;50.936;5.334;2023-10-31T10:45:57;13.70;99.90
25024;DHT22;13033;50.936;5.334;2023-10-31T10:48:24;13.70;99.90
25024;DHT22;13033;50.936;5.334;2023-10-31T10:51:05;13.80;99.90
25024;DHT22;13033;50.936;5.334;2023-10-31T10:53:48;13.90;99.90
25024;DHT22;13033;50.936;5.334;2023-10-31T10:56:24;14.00;99.90
25024;DHT22;13033;50.936;5.334;2023-10-31T10:58:55;14.20;99.90
25024;DHT22;13033;50.936;5.334;2023-10-31T11:01:24;14.30;99.90
25024;DHT22;13033;50.936;5.334;2023-10-31T11:03:51;14.30;99.90
25024;DHT22;13033;50.936;5.334;2023-10-31T11:06:19;14.40;99.90
25024;DHT22;13033;50.936;5.334;2023-10-31T11:08:45;14.40;99.90
25024;DHT22;13033;50.936;5.334;2023-10-31T11:11:12;14.40;99.90
25024;DHT22;13033;50.936;5.334;2023-10-31T11:13:38;14.60;99.90
25024;DHT22;13033;50.936;5.334;2023-10-31T11:16:20;14.70;99.90
25024;DHT22;13033;50.936;5.334;2023-10-31T11:18:47;14.80;99.90
25024;DHT22;13033;50.936;5.334;2023-10-31T11:21:13;14.50;99.90
25024;DHT22;13033;50.936;5.334;2023-10-31T11:23:40;14.30;99.90
25024;DHT22;13033;50.936;5.334;2023-10-31T11:26:10;14.30;99.90
25024;DHT22;13033;50.936;5.334;2023-10-31T11:28:36;14.20;99.90
25024;DHT22;13033;50.936;5.334;2023-10-31T11:31:02;14.40;99.90
25024;DHT22;13033;50.936;5.334;2023-10-31T11:33:28;14.30;99.90
25024;DHT22;13033;50.936;5.334;2023-10-31T11:36:01;14.60;99.90
25024;DHT22;13033;50.936;5.334;2023-10-31T11:38:37;14.90;99.90
25024;DHT22;13033;50.936;5.334;2023-10-31T11:41:03;15.20;99.90
25024;DHT22;13033;50.936;5.334;2023-10-31T11:46:04;15.50;99.90
25024;DHT22;13033;50.936;5.334;2023-10-31T11:48:50;15.00;99.90
25024;DHT22;13033;50.936;5.334;2023-10-31T11:51:17;15.00;99.90
25024;DHT22;13033;50.936;5.334;2023-10-31T11:53:44;14.80;99.90
25024;DHT22;13033;50.936;5.334;2023-10-31T11:56:10;14.80;99.90
25024;DHT22;13033;50.936;5.334;2023-10-31T11:58:37;14.90;99.90
25024;DHT22;13033;50.936;5.334;2023-10-31T12:01:07;15.10;99.90
25024;DHT22;13033;50.936;5.334;2023-10-31T12:03:40;15.10;99.90
25024;DHT22;13033;50.936;5.334;2023-10-31T12:06:07;15.20;99.90
25024;DHT22;13033;50.936;5.334;2023-10-31T12:08:33;15.00;99.90
25024;DHT22;13033;50.936;5.334;2023-10-31T12:11:10;14.80;99.90
25024;DHT22;13033;50.936;5.334;2023-10-31T12:13:38;14.70;99.90
25024;DHT22;13033;50.936;5.334;2023-10-31T12:16:05;14.50;99.90
25024;DHT22;13033;50.936;5.334;2023-10-31T12:18:35;14.50;99.90
25024;DHT22;13033;50.936;5.334;2023-10-31T12:21:01;14.40;99.90
25024;DHT22;13033;50.936;5.334;2023-10-31T12:23:27;14.60;99.90
25024;DHT22;13033;50.936;5.334;2023-10-31T12:25:53;14.90;99.90
25024;DHT22;13033;50.936;5.334;2023-10-31T12:28:24;15.20;99.90
25024;DHT22;13033;50.936;5.334;2023-10-31T12:30:51;15.30;99.90
25024;DHT22;13033;50.936;5.334;2023-10-31T12:33:20;15.10;99.90
25024;DHT22;13033;50.936;5.334;2023-10-31T12:35:46;15.00;99.90
25024;DHT22;13033;50.936;5.334;2023-10-31T12:38:12;15.20;99.90
25024;DHT22;13033;50.936;5.334;2023-10-31T12:40:40;15.20;99.90
25024;DHT22;13033;50.936;5.334;2023-10-31T12:43:08;15.20;99.90
25024;DHT22;13033;50.936;5.334;2023-10-31T12:45:33;15.10;99.90
25024;DHT22;13033;50.936;5.334;2023-10-31T12:48:07;14.70;99.90
25024;DHT22;13033;50.936;5.334;2023-10-31T12:50:35;14.40;99.90
25024;DHT22;13033;50.936;5.334;2023-10-31T12:53:03;14.50;99.90
25024;DHT22;13033;50.936;5.334;2023-10-31T12:55:36;14.50;99.90
25024;DHT22;13033;50.936;5.334;2023-10-31T12:58:05;14.50;99.90
25024;DHT22;13033;50.936;5.334;2023-10-31T13:00:33;14.50;99.90
25024;DHT22;13033;50.936;5.334;2023-10-31T13:03:08;14.80;99.90
25024;DHT22;13033;50.936;5.334;2023-10-31T13:05:34;14.80;99.90
25024;DHT22;13033;50.936;5.334;2023-10-31T13:08:01;14.90;99.90
25024;DHT22;13033;50.936;5.334;2023-10-31T13:10:30;14.60;99.90
25024;DHT22;13033;50.936;5.334;2023-10-31T13:12:58;14.80;99.90
25024;DHT22;13033;50.936;5.334;2023-10-31T13:15:23;14.90;99.90
25024;DHT22;13033;50.936;5.334;2023-10-31T13:17:50;14.70;99.90
25024;DHT22;13033;50.936;5.334;2023-10-31T13:20:19;14.50;99.90
25024;DHT22;13033;50.936;5.334;2023-10-31T13:22:45;14.50;99.90
25024;DHT22;13033;50.936;5.334;2023-10-31T13:25:12;14.40;99.90
25024;DHT22;13033;50.936;5.334;2023-10-31T13:27:39;14.10;99.90
25024;DHT22;13033;50.936;5.334;2023-10-31T13:30:10;14.00;99.90
25024;DHT22;13033;50.936;5.334;2023-10-31T13:32:40;13.90;99.90
25024;DHT22;13033;50.936;5.334;2023-10-31T13:35:06;13.70;99.90
25024;DHT22;13033;50.936;5.334;2023-10-31T13:37:35;13.80;99.90
25024;DHT22;13033;50.936;5.334;2023-10-31T13:40:01;13.80;99.90
25024;DHT22;13033;50.936;5.334;2023-10-31T13:42:27;13.80;99.90
25024;DHT22;13033;50.936;5.334;2023-10-31T13:44:53;13.80;99.90
25024;DHT22;13033;50.936;5.334;2023-10-31T13:47:19;13.60;99.90
25024;DHT22;13033;50.936;5.334;2023-10-31T13:49:45;13.60;99.90
25024;DHT22;13033;50.936;5.334;2023-10-31T13:52:10;13.60;99.90
25024;DHT22;13033;50.936;5.334;2023-10-31T13:54:36;13.50;99.90
25024;DHT22;13033;50.936;5.334;2023-10-31T13:57:02;13.40;99.90
25024;DHT22;13033;50.936;5.334;2023-10-31T13:59:29;13.30;99.90
25024;DHT22;13033;50.936;5.334;2023-10-31T14:01:54;13.40;99.90
25024;DHT22;13033;50.936;5.334;2023-10-31T14:04:20;13.40;99.90
25024;DHT22;13033;50.936;5.334;2023-10-31T14:06:46;13.30;99.90
25024;DHT22;13033;50.936;5.334;2023-10-31T14:09:12;13.30;99.90
25024;DHT22;13033;50.936;5.334;2023-10-31T14:11:40;13.30;99.90
25024;DHT22;13033;50.936;5.334;2023-10-31T14:14:06;13.10;99.90
25024;DHT22;13033;50.936;5.334;2023-10-31T14:16:47;13.10;99.90
25024;DHT22;13033;50.936;5.334;2023-10-31T14:19:14;12.90;99.90
25024;DHT22;13033;50.936;5.334;2023-10-31T14:21:43;12.80;99.90
25024;DHT22;13033;50.936;5.334;2023-10-31T14:24:09;13.00;99.90
25024;DHT22;13033;50.936;5.334;2023-10-31T14:26:35;13.10;99.90
25024;DHT22;13033;50.936;5.334;2023-10-31T14:29:01;12.90;99.90
25024;DHT22;13033;50.936;5.334;2023-10-31T14:31:27;12.90;99.90
25024;DHT22;13033;50.936;5.334;2023-10-31T14:33:53;12.90;99.90
25024;DHT22;13033;50.936;5.334;2023-10-31T14:36:18;12.90;99.90
25024;DHT22;13033;50.936;5.334;2023-10-31T14:38:44;12.90;99.90
25024;DHT22;13033;50.936;5.334;2023-10-31T14:41:10;12.90;99.90
25024;DHT22;13033;50.936;5.334;2023-10-31T14:43:36;12.80;99.90
25024;DHT22;13033;50.936;5.334;2023-10-31T14:46:03;12.90;99.90
25024;DHT22;13033;50.936;5.334;2023-10-31T14:48:29;12.90;99.90
25024;DHT22;13033;50.936;5.334;2023-10-31T14:50:55;12.90;99.90
25024;DHT22;13033;50.936;5.334;2023-10-31T14:53:22;12.80;99.90
25024;DHT22;13033;50.936;5.334;2023-10-31T14:55:48;12.80;99.90
25024;DHT22;13033;50.936;5.334;2023-10-31T14:58:14;12.80;99.90
25024;DHT22;13033;50.936;5.334;2023-10-31T15:00:39;12.90;99.90
25024;DHT22;13033;50.936;5.334;2023-10-31T15:03:05;12.80;99.90
25024;DHT22;13033;50.936;5.334;2023-10-31T15:05:31;12.90;99.90
25024;DHT22;13033;50.936;5.334;2023-10-31T15:07:58;13.00;99.90
25024;DHT22;13033;50.936;5.334;2023-10-31T15:10:24;13.00;99.90
25024;DHT22;13033;50.936;5.334;2023-10-31T15:12:51;13.20;99.90
25024;DHT22;13033;50.936;5.334;2023-10-31T15:15:17;13.20;99.90
25024;DHT22;13033;50.936;5.334;2023-10-31T15:17:43;13.20;99.90
25024;DHT22;13033;50.936;5.334;2023-10-31T15:20:10;13.20;99.90
25024;DHT22;13033;50.936;5.334;2023-10-31T15:22:41;13.30;99.90
25024;DHT22;13033;50.936;5.334;2023-10-31T15:25:09;13.20;99.90
25024;DHT22;13033;50.936;5.334;2023-10-31T15:27:35;13.10;99.90
25024;DHT22;13033;50.936;5.334;2023-10-31T15:30:01;13.10;99.90